Time;durP1;ratioP1;P1;durP2;ratioP2;P2;SDS_P1;SDS_P2;PMS_P1;PMS_P2;Temp;Humidity;BMP_temperature;BMP_pressure;BME280_temperature;BME280_humidity;BME280_pressure;Samples;Min_cycle;Max_cycle;Signal;HPM_P1;HPM_P2
2022/09/21 00:01:04;;;;;;;;;12.00;12.00;;;;;16.71;52.76;101944.31;2103222;27;47440;-62
2022/09/21 00:02:05;;;;;;;;;11.00;11.00;;;;;16.71;52.66;101949.66;2112047;27;47728;-60
2022/09/21 00:03:05;;;;;;;;;11.25;11.25;;;;;16.70;52.17;101943.41;2112728;27;47564;-61
2022/09/21 00:04:06;;;;;;;;;10.00;10.00;;;;;16.70;52.64;101942.53;2112785;27;48103;-62
2022/09/21 00:05:07;;;;;;;;;10.00;10.00;;;;;16.70;52.19;101947.91;2112873;27;47484;-60
2022/09/21 00:06:10;;;;;;;;;10.40;10.40;;;;;16.70;52.15;101940.75;2096823;28;48204;-62
2022/09/21 00:07:11;;;;;;;;;10.20;10.20;;;;;16.70;52.61;101945.22;2103698;27;48025;-60
2022/09/21 00:08:13;;;;;;;;;12.50;10.50;;;;;16.69;52.74;101940.78;2112866;27;47923;-62
2022/09/21 00:09:13;;;;;;;;;11.40;10.40;;;;;16.71;52.49;101949.66;2112685;27;47747;-61
2022/09/21 00:10:14;;;;;;;;;13.25;10.00;;;;;16.71;52.49;101953.22;2111368;27;47175;-62
2022/09/21 00:11:19;;;;;;;;;7.00;7.00;;;;;16.71;52.48;101946.97;2104520;28;47299;-61
2022/09/21 00:12:21;;;;;;;;;10.00;9.40;;;;;16.70;52.32;101951.47;2103190;27;48170;-61
2022/09/21 00:13:21;;;;;;;;;12.80;10.00;;;;;16.69;52.55;101940.78;2096479;27;47706;-61
2022/09/21 00:14:21;;;;;;;;;10.50;10.50;;;;;16.70;52.19;101942.53;2108562;27;47088;-61
2022/09/21 00:15:22;;;;;;;;;11.00;10.00;;;;;16.67;52.43;101940.84;2104061;27;47878;-61
2022/09/21 00:16:22;;;;;;;;;9.75;9.75;;;;;16.68;52.75;101944.41;2104712;28;47301;-61
2022/09/21 00:17:23;;;;;;;;;10.75;10.75;;;;;16.67;52.58;101946.19;2107868;27;47259;-60
2022/09/21 00:18:24;;;;;;;;;11.00;11.00;;;;;16.67;52.79;101946.19;2101285;27;46873;-60
2022/09/21 00:19:24;;;;;;;;;10.40;10.40;;;;;16.67;52.48;101942.59;2102402;27;48603;-61
2022/09/21 00:20:27;;;;;;;;;9.25;9.25;;;;;16.67;52.37;101945.28;2099536;28;47384;-61
2022/09/21 00:21:27;;;;;;;;;9.80;9.80;;;;;16.66;52.50;101946.22;2102640;28;47585;-61
2022/09/21 00:22:28;;;;;;;;;10.50;8.75;;;;;16.66;52.23;101943.53;2105206;27;47537;-60
2022/09/21 00:23:28;;;;;;;;;9.75;9.00;;;;;16.65;52.69;101942.66;2103813;27;47318;-62
2022/09/21 00:24:28;;;;;;;;;9.25;8.75;;;;;16.63;52.63;101940.91;2112983;27;46800;-62
2022/09/21 00:25:29;;;;;;;;;7.25;7.25;;;;;16.64;52.43;101939.97;2108478;27;47536;-61
2022/09/21 00:26:30;;;;;;;;;9.00;9.00;;;;;16.63;52.57;101941.78;2111844;27;47439;-61
2022/09/21 00:27:30;;;;;;;;;8.60;8.40;;;;;16.62;52.76;101945.38;2096041;28;46850;-60
2022/09/21 00:28:31;;;;;;;;;9.25;9.25;;;;;16.61;52.15;101949.00;2098968;28;47337;-60
2022/09/21 00:29:31;;;;;;;;;10.25;9.00;;;;;16.61;52.75;101945.44;2112139;27;47495;-60
2022/09/21 00:30:32;;;;;;;;;9.00;8.25;;;;;16.60;52.24;101952.59;2104933;27;46753;-65
2022/09/21 00:31:33;;;;;;;;;9.00;7.00;;;;;16.60;52.76;101955.28;2097442;28;48042;-62
2022/09/21 00:32:36;;;;;;;;;9.00;7.20;;;;;16.59;52.52;101942.78;2103919;28;47146;-64
2022/09/21 00:33:38;;;;;;;;;9.60;9.60;;;;;16.59;52.58;101941.91;2112851;27;47492;-61
2022/09/21 00:34:38;;;;;;;;;9.60;9.40;;;;;16.57;52.37;101941.97;2103268;28;45730;-62
2022/09/21 00:35:40;;;;;;;;;10.50;9.75;;;;;16.57;52.61;101939.28;2103599;28;46786;-63
2022/09/21 00:36:40;;;;;;;;;8.60;8.60;;;;;16.55;52.56;101943.81;2109569;27;47358;-61
2022/09/21 00:37:40;;;;;;;;;10.25;10.00;;;;;16.54;52.57;101949.22;2120572;27;47815;-60
2022/09/21 00:38:41;;;;;;;;;9.00;9.00;;;;;16.53;52.39;101945.66;2112006;27;47779;-61
2022/09/21 00:39:42;;;;;;;;;9.00;9.00;;;;;16.52;52.50;101945.69;2111994;27;47457;-62
2022/09/21 00:40:42;;;;;;;;;9.00;8.50;;;;;16.51;52.51;101949.28;2105287;27;47362;-64
2022/09/21 00:41:43;;;;;;;;;7.75;7.75;;;;;16.49;52.50;101946.63;2092515;28;45390;-62
2022/09/21 00:42:43;;;;;;;;;11.00;8.75;;;;;16.48;52.83;101947.56;2095189;28;47509;-62
2022/09/21 00:44:05;;;;;;;;;8.50;8.00;;;;;16.47;52.28;101951.16;2103377;28;45309;-64
2022/09/21 00:45:06;;;;;;;;;9.40;9.40;;;;;16.47;52.85;101953.84;2110103;27;45975;-62
2022/09/21 00:46:26;;;;;;;;;7.00;7.00;;;;;16.46;52.53;101949.41;2095652;28;45974;-62
2022/09/21 00:47:29;;;;;;;;;9.40;8.60;;;;;16.45;52.42;101953.88;2103387;28;47361;-60
2022/09/21 00:48:30;;;;;;;;;10.40;10.20;;;;;16.45;52.73;101947.66;2111466;27;47734;-61
2022/09/21 00:49:33;;;;;;;;;8.80;8.00;;;;;16.44;52.81;101948.56;2112246;27;45999;-60
2022/09/21 00:50:36;;;;;;;;;9.80;9.80;;;;;16.44;52.89;101953.94;2111646;27;47410;-60
2022/09/21 00:51:37;;;;;;;;;7.60;7.60;;;;;16.43;52.64;101949.50;2111907;27;45203;-61
2022/09/21 00:52:41;;;;;;;;;10.50;9.00;;;;;16.41;52.49;101949.53;2104989;27;48186;-62
2022/09/21 00:53:43;;;;;;;;;5.60;5.20;;;;;16.42;52.67;101953.97;2111696;27;47839;-60
2022/09/21 00:54:51;;;;;;;;;8.00;8.00;;;;;16.41;53.04;101954.03;2102797;27;47925;-61
2022/09/21 00:55:55;;;;;;;;;8.40;8.40;;;;;16.41;52.78;101956.69;2095763;27;45973;-61
2022/09/21 00:57:01;;;;;;;;;8.40;7.60;;;;;16.40;52.60;101955.81;2103320;27;47658;-61
2022/09/21 00:58:08;;;;;;;;;8.20;8.20;;;;;16.40;52.68;101954.94;2108751;27;47418;-61
2022/09/21 00:59:09;;;;;;;;;8.40;8.40;;;;;16.39;52.41;101951.38;2111241;27;47709;-62
2022/09/21 01:00:10;;;;;;;;;8.00;8.00;;;;;16.39;52.77;101950.50;2111588;27;47633;-61
2022/09/21 01:01:14;;;;;;;;;8.75;7.75;;;;;16.39;52.46;101947.81;2110581;27;47485;-60
2022/09/21 01:02:14;;;;;;;;;7.80;6.80;;;;;16.39;52.82;101950.50;2107978;27;47909;-61
2022/09/21 01:03:15;;;;;;;;;4.00;4.00;;;;;16.39;52.73;101947.81;2104244;27;46710;-61
2022/09/21 01:04:17;;;;;;;;;7.75;7.75;;;;;16.36;52.56;101942.53;2110772;27;47303;-60
2022/09/21 01:05:18;;;;;;;;;10.00;9.20;;;;;16.37;52.50;101946.97;2108185;27;47899;-62
2022/09/21 01:06:20;;;;;;;;;7.50;6.25;;;;;16.37;53.02;101952.31;2110031;27;47515;-60
2022/09/21 01:07:28;;;;;;;;;8.40;8.40;;;;;16.37;52.89;101955.00;2111860;27;48202;-61
2022/09/21 01:08:29;;;;;;;;;7.00;7.00;;;;;16.36;52.80;101948.75;2103805;28;47391;-60
2022/09/21 01:09:30;;;;;;;;;9.20;8.80;;;;;16.35;52.61;101952.38;2102741;27;47638;-62
2022/09/21 01:10:59;;;;;;;;;8.80;8.80;;;;;16.35;52.72;101946.13;2112138;27;47997;-60
2022/09/21 01:12:37;;;;;;;;;7.20;7.20;;;;;16.33;52.72;101947.97;2097948;28;47682;-62
2022/09/21 01:13:57;;;;;;;;;7.40;7.40;;;;;16.32;53.16;101946.22;2086716;28;47283;-60
2022/09/21 01:15:15;;;;;;;;;7.20;7.20;;;;;16.32;53.04;101951.56;2090933;28;45894;-60
2022/09/21 01:16:30;;;;;;;;;6.80;6.80;;;;;16.31;53.17;101950.69;2104720;28;47288;-60
2022/09/21 01:18:04;;;;;;;;;7.40;7.40;;;;;16.31;52.74;101950.69;2106416;27;48077;-60
2022/09/21 01:19:39;;;;;;;;;7.00;7.00;;;;;16.29;53.16;101946.31;2113563;27;47636;-60
2022/09/21 01:21:11;;;;;;;;;8.40;8.40;;;;;16.28;53.17;101953.47;2113600;27;47869;-61
2022/09/21 01:22:25;;;;;;;;;8.60;8.60;;;;;16.28;52.93;101950.78;2111407;27;47811;-59
2022/09/21 01:23:34;;;;;;;;;10.00;9.00;;;;;16.27;53.18;101948.16;2106436;27;47169;-61
2022/09/21 01:24:49;;;;;;;;;8.40;8.00;;;;;16.24;52.89;101949.06;2111408;27;48034;-64
2022/09/21 01:26:33;;;;;;;;;8.60;8.60;;;;;16.24;53.12;101950.88;2112804;27;47700;-64
2022/09/21 01:27:40;;;;;;;;;7.60;7.20;;;;;16.22;53.32;101945.56;2097698;28;46593;-63
2022/09/21 01:29:00;;;;;;;;;8.00;7.00;;;;;16.22;53.08;101952.72;2107199;27;47503;-62
2022/09/21 01:30:12;;;;;;;;;12.00;10.40;;;;;16.21;53.14;101942.94;2112009;27;46856;-65
2022/09/21 01:31:22;;;;;;;;;10.20;8.80;;;;;16.19;53.40;101951.88;2112324;27;45978;-61
2022/09/21 01:32:30;;;;;;;;;6.00;6.00;;;;;16.19;53.56;101951.88;2097560;28;47735;-61
2022/09/21 01:33:43;;;;;;;;;8.20;7.60;;;;;16.18;53.29;101951.94;2105215;27;47842;-61
2022/09/21 01:35:01;;;;;;;;;8.60;8.00;;;;;16.18;53.12;101949.25;2099147;28;47862;-64
2022/09/21 01:36:10;;;;;;;;;6.40;6.40;;;;;16.18;53.64;101951.94;2096355;28;45083;-65
2022/09/21 01:37:18;;;;;;;;;8.80;8.80;;;;;16.16;53.54;101949.28;2090029;28;47736;-63
2022/09/21 01:38:25;;;;;;;;;6.00;6.00;;;;;16.16;53.18;101945.75;2094965;28;47186;-63
2022/09/21 01:39:29;;;;;;;;;8.20;8.20;;;;;16.17;53.37;101952.84;2085359;28;45286;-62
2022/09/21 01:40:40;;;;;;;;;8.20;7.80;;;;;16.17;53.76;101951.06;2091938;28;45928;-65
2022/09/21 01:41:44;;;;;;;;;5.80;5.80;;;;;16.17;53.37;101952.84;2095328;27;45877;-61
2022/09/21 01:42:48;;;;;;;;;7.00;6.00;;;;;16.18;53.68;101954.59;2102591;28;47941;-60
2022/09/21 01:43:56;;;;;;;;;9.60;9.20;;;;;16.15;53.76;101947.53;2108109;27;47965;-60
2022/09/21 01:45:01;;;;;;;;;7.20;6.60;;;;;16.15;53.86;101950.22;2106158;27;47669;-61
2022/09/21 01:46:04;;;;;;;;;9.20;8.00;;;;;16.14;53.66;101951.13;2104171;27;47264;-62
2022/09/21 01:47:11;;;;;;;;;10.40;8.80;;;;;16.14;53.80;101950.25;2105531;28;47307;-60
2022/09/21 01:48:14;;;;;;;;;7.25;7.25;;;;;16.14;53.54;101953.81;2101889;27;47577;-62
2022/09/21 01:49:23;;;;;;;;;10.60;9.80;;;;;16.13;53.42;101948.47;2099881;28;48076;-60
2022/09/21 01:50:28;;;;;;;;;9.00;9.00;;;;;16.13;53.99;101952.06;2104984;28;46600;-61
2022/09/21 01:51:29;;;;;;;;;9.20;9.20;;;;;16.12;53.59;101944.91;2102446;27;47725;-61
2022/09/21 01:52:39;;;;;;;;;10.20;10.20;;;;;16.11;53.90;101943.16;2101628;28;47975;-61
2022/09/21 01:54:11;;;;;;;;;9.20;9.20;;;;;16.11;54.29;101953.88;2104393;28;47739;-60
2022/09/21 01:55:18;;;;;;;;;10.00;10.00;;;;;16.10;54.03;101952.09;2062391;28;47569;-64
2022/09/21 01:56:29;;;;;;;;;12.40;11.00;;;;;16.09;53.68;101947.66;2062721;28;45294;-62
2022/09/21 01:58:11;;;;;;;;;9.60;9.60;;;;;16.10;53.90;101952.09;2052860;28;45503;-63
2022/09/21 01:59:20;;;;;;;;;11.00;8.60;;;;;16.09;53.91;101947.66;2028821;28;48082;-63
2022/09/21 02:00:23;;;;;;;;;10.40;9.60;;;;;16.09;53.77;101954.81;2030836;28;45399;-62
2022/09/21 02:01:28;;;;;;;;;9.20;9.00;;;;;16.09;54.00;101950.34;2028951;28;47067;-61
2022/09/21 02:02:52;;;;;;;;;10.80;10.80;;;;;16.07;53.98;101948.63;2031024;29;47791;-60
2022/09/21 02:04:00;;;;;;;;;9.80;8.60;;;;;16.07;53.96;101949.50;2028952;28;46468;-60
2022/09/21 02:05:04;;;;;;;;;12.20;11.00;;;;;16.07;54.01;101956.66;2029264;28;48020;-62
2022/09/21 02:06:05;;;;;;;;;7.50;7.50;;;;;16.06;54.09;101955.78;2030947;28;47904;-62
2022/09/21 02:07:07;;;;;;;;;8.80;8.80;;;;;16.05;54.09;101947.78;2029347;28;47618;-62
2022/09/21 02:08:08;;;;;;;;;9.60;9.60;;;;;16.04;54.09;101946.91;2030439;28;47385;-62
2022/09/21 02:09:10;;;;;;;;;10.40;7.40;;;;;16.03;53.96;101958.56;2029648;28;47603;-63
2022/09/21 02:10:19;;;;;;;;;9.20;8.20;;;;;16.02;54.61;101951.44;2022863;29;45600;-63
2022/09/21 02:11:20;;;;;;;;;7.40;7.40;;;;;16.01;54.19;101951.47;2022230;28;47467;-62
2022/09/21 02:12:21;;;;;;;;;7.00;6.75;;;;;16.01;54.42;101947.00;2030962;28;47614;-61
2022/09/21 02:13:26;;;;;;;;;9.60;8.80;;;;;16.00;54.03;101950.56;2029332;28;47966;-61
2022/09/21 02:14:28;;;;;;;;;8.60;8.60;;;;;16.01;54.46;101948.81;2031047;29;47874;-62
2022/09/21 02:16:06;;;;;;;;;9.40;9.40;;;;;15.98;54.22;101955.09;2028521;28;47599;-61
2022/09/21 02:17:46;;;;;;;;;9.20;9.20;;;;;15.97;54.31;101963.16;2009254;29;47283;-62
2022/09/21 02:19:22;;;;;;;;;8.60;7.20;;;;;15.96;54.63;101962.28;1986852;29;47357;-62
2022/09/21 02:20:29;;;;;;;;;11.20;10.80;;;;;15.96;54.90;101962.28;1984029;29;47417;-62
2022/09/21 02:21:41;;;;;;;;;9.20;9.20;;;;;15.95;54.67;101959.63;1981960;29;45836;-62
2022/09/21 02:23:02;;;;;;;;;8.40;7.00;;;;;15.95;54.45;101959.63;1981859;29;47908;-61
2022/09/21 02:24:43;;;;;;;;;8.40;8.40;;;;;15.96;54.75;101954.25;1983834;29;47763;-61
2022/09/21 02:25:58;;;;;;;;;9.20;9.20;;;;;15.94;54.76;101952.53;1961109;29;47864;-61
2022/09/21 02:27:12;;;;;;;;;10.00;9.40;;;;;15.93;54.49;101957.00;1961086;29;47241;-61
2022/09/21 02:28:54;;;;;;;;;8.00;8.00;;;;;15.94;54.51;101955.22;1961590;29;47685;-62
2022/09/21 02:30:07;;;;;;;;;10.20;8.60;;;;;15.94;55.00;101956.09;1957801;30;46561;-61
2022/09/21 02:32:04;;;;;;;;;9.60;8.80;;;;;15.93;54.96;101948.09;1953444;30;47263;-62
2022/09/21 02:33:11;;;;;;;;;7.60;7.20;;;;;15.92;54.88;101949.91;1967830;29;47622;-60
2022/09/21 02:34:27;;;;;;;;;10.00;8.40;;;;;15.90;55.02;101949.06;1968955;29;47587;-60
2022/09/21 02:35:42;;;;;;;;;6.20;5.80;;;;;15.88;54.96;101945.53;1966997;29;47760;-61
2022/09/21 02:36:48;;;;;;;;;8.60;8.60;;;;;15.87;54.90;101947.31;1969025;29;48054;-61
2022/09/21 02:38:05;;;;;;;;;10.00;9.60;;;;;15.85;55.01;101948.28;1975943;29;47971;-62
2022/09/21 02:39:12;;;;;;;;;4.40;4.40;;;;;15.84;54.76;101943.84;1975133;29;48194;-61
2022/09/21 02:40:29;;;;;;;;;10.40;10.40;;;;;15.83;54.71;101948.31;1976474;29;48349;-61
2022/09/21 02:42:00;;;;;;;;;10.20;8.80;;;;;15.81;54.62;101950.16;1975175;29;45235;-62
2022/09/21 02:43:20;;;;;;;;;9.80;9.00;;;;;15.81;55.18;101947.47;1975545;29;47440;-60
2022/09/21 02:44:31;;;;;;;;;10.00;10.00;;;;;15.82;55.26;101945.66;1976703;29;47646;-60
2022/09/21 02:45:46;;;;;;;;;6.40;6.40;;;;;15.82;54.85;101943.00;1974910;29;48029;-60
2022/09/21 02:46:53;;;;;;;;;10.20;8.40;;;;;15.82;54.59;101941.19;1973870;29;47775;-59
2022/09/21 02:48:07;;;;;;;;;8.60;8.60;;;;;15.84;55.39;101943.84;1975609;29;46754;-60
2022/09/21 02:49:18;;;;;;;;;8.40;8.40;;;;;15.84;54.76;101943.84;1968052;29;47562;-60
2022/09/21 02:50:35;;;;;;;;;8.60;8.60;;;;;15.83;55.21;101942.97;1969406;29;45113;-62
2022/09/21 02:51:46;;;;;;;;;11.00;11.00;;;;;15.82;54.78;101937.63;1974421;29;47550;-63
2022/09/21 02:52:47;;;;;;;;;9.40;7.80;;;;;15.81;55.08;101938.56;1975826;29;45079;-63
2022/09/21 02:53:51;;;;;;;;;10.60;9.60;;;;;15.81;55.21;101931.41;1973902;29;47249;-62
2022/09/21 02:54:53;;;;;;;;;8.60;8.60;;;;;15.81;55.29;101934.09;1985173;29;48118;-63
2022/09/21 02:55:57;;;;;;;;;10.60;10.60;;;;;15.80;55.10;101940.34;1991578;29;47463;-62
2022/09/21 02:57:01;;;;;;;;;11.20;11.20;;;;;15.79;54.99;101935.94;2013813;29;47301;-59
2022/09/21 02:58:05;;;;;;;;;11.60;11.60;;;;;15.78;55.14;101935.97;2022068;29;47302;-62
2022/09/21 02:59:07;;;;;;;;;12.40;11.00;;;;;15.78;55.33;101935.97;2021316;29;47441;-60
2022/09/21 03:00:08;;;;;;;;;9.80;9.20;;;;;15.77;55.37;101935.09;2022022;29;48136;-64
2022/09/21 03:01:14;;;;;;;;;11.20;11.20;;;;;15.77;54.74;101939.56;2021148;29;45803;-63
2022/09/21 03:02:15;;;;;;;;;11.00;10.40;;;;;15.76;55.33;101943.16;2019608;28;47552;-63
2022/09/21 03:03:20;;;;;;;;;11.25;10.25;;;;;15.74;54.99;101935.13;2037175;28;48105;-63
2022/09/21 03:04:22;;;;;;;;;13.40;13.40;;;;;15.74;54.97;101937.81;2038423;28;46336;-64
2022/09/21 03:05:23;;;;;;;;;14.80;13.60;;;;;15.74;55.14;101934.25;2035727;28;46014;-63
2022/09/21 03:06:23;;;;;;;;;13.60;12.00;;;;;15.74;55.09;101934.25;2030937;28;45522;-60
2022/09/21 03:07:24;;;;;;;;;11.25;11.25;;;;;15.72;55.51;101934.28;2070069;28;47848;-61
2022/09/21 03:08:24;;;;;;;;;13.50;13.00;;;;;15.72;55.23;101931.63;2100843;28;47431;-61
2022/09/21 03:09:25;;;;;;;;;13.75;13.75;;;;;15.74;55.24;101943.16;2095551;27;47151;-61
2022/09/21 03:10:25;;;;;;;;;12.25;10.50;;;;;15.74;55.38;101934.25;2095684;28;47499;-62
2022/09/21 03:11:25;;;;;;;;;10.75;9.50;;;;;15.73;55.25;101932.50;2093060;28;47605;-61
2022/09/21 03:12:26;;;;;;;;;11.25;10.00;;;;;15.74;55.34;101932.47;2096171;28;47828;-61
2022/09/21 03:13:26;;;;;;;;;13.50;13.50;;;;;15.74;55.08;101939.59;2091001;28;47528;-61
2022/09/21 03:14:26;;;;;;;;;10.75;10.75;;;;;15.73;55.06;101936.06;2088096;28;47623;-60
2022/09/21 03:15:27;;;;;;;;;14.50;10.75;;;;;15.73;55.38;101943.22;2091966;28;47651;-61
2022/09/21 03:16:27;;;;;;;;;14.00;12.25;;;;;15.72;55.23;101939.66;2095433;28;47535;-61
2022/09/21 03:17:28;;;;;;;;;9.25;9.25;;;;;15.73;55.24;101940.53;2092870;28;47158;-61
2022/09/21 03:18:29;;;;;;;;;10.50;10.25;;;;;15.72;54.91;101938.78;2096250;28;47789;-61
2022/09/21 03:19:29;;;;;;;;;9.80;9.80;;;;;15.70;55.28;101933.47;2092640;28;47874;-61
2022/09/21 03:20:33;;;;;;;;;10.25;8.75;;;;;15.70;55.62;101935.25;2096249;28;48133;-61
2022/09/21 03:21:34;;;;;;;;;13.00;12.00;;;;;15.70;55.49;101935.25;2093508;28;47584;-61
2022/09/21 03:22:34;;;;;;;;;12.00;11.00;;;;;15.70;55.29;101937.94;2086937;28;47666;-61
2022/09/21 03:23:35;;;;;;;;;12.25;11.75;;;;;15.70;55.31;101936.13;2092934;28;47563;-61
2022/09/21 03:24:44;;;;;;;;;10.50;9.75;;;;;15.69;55.15;101939.72;2087627;28;47901;-60
2022/09/21 03:25:45;;;;;;;;;10.20;9.00;;;;;15.68;55.06;101939.78;2094424;28;47908;-61
2022/09/21 03:26:46;;;;;;;;;12.20;10.40;;;;;15.66;55.26;101939.81;2094739;28;47738;-61
2022/09/21 03:27:47;;;;;;;;;10.00;10.00;;;;;15.65;55.32;101935.38;2090516;28;48097;-59
2022/09/21 03:28:48;;;;;;;;;8.00;8.00;;;;;15.65;55.13;101934.50;2088173;28;46151;-63
2022/09/21 03:29:49;;;;;;;;;9.80;9.80;;;;;15.64;55.30;101927.38;2091980;28;47840;-61
2022/09/21 03:30:50;;;;;;;;;10.25;9.50;;;;;15.63;55.29;101930.97;2092636;28;47715;-61
2022/09/21 03:31:53;;;;;;;;;11.20;10.40;;;;;15.63;55.26;101939.00;2094849;28;47558;-62
2022/09/21 03:32:54;;;;;;;;;12.60;11.00;;;;;15.63;55.61;101936.34;2094033;28;47868;-62
2022/09/21 03:33:55;;;;;;;;;12.60;11.40;;;;;15.62;55.33;101939.88;2095569;28;47494;-61
2022/09/21 03:34:55;;;;;;;;;11.50;11.50;;;;;15.63;55.44;101942.56;2093205;28;47309;-63
2022/09/21 03:35:55;;;;;;;;;12.25;12.00;;;;;15.64;55.51;101946.13;2077243;28;47807;-61
2022/09/21 03:36:56;;;;;;;;;12.50;12.50;;;;;15.63;55.29;101947.03;2085239;28;45198;-61
2022/09/21 03:37:56;;;;;;;;;11.25;11.25;;;;;15.62;55.13;101942.56;2095649;28;47588;-60
2022/09/21 03:38:57;;;;;;;;;13.75;11.75;;;;;15.60;55.54;101945.28;2095398;28;47702;-60
2022/09/21 03:39:59;;;;;;;;;12.50;12.00;;;;;15.60;55.21;101939.94;2090330;28;47528;-62
2022/09/21 03:40:59;;;;;;;;;12.40;12.40;;;;;15.60;55.11;101942.59;2098007;28;47508;-62
2022/09/21 03:42:00;;;;;;;;;13.75;11.75;;;;;15.61;55.79;101941.69;2099227;28;47411;-61
2022/09/21 03:43:01;;;;;;;;;36.60;30.20;;;;;15.60;55.39;101945.28;2094092;28;47600;-60
2022/09/21 03:44:01;;;;;;;;;22.25;20.50;;;;;15.60;55.83;101948.84;2089328;28;47387;-59
2022/09/21 03:45:02;;;;;;;;;20.00;18.25;;;;;15.60;55.93;101942.59;2090516;28;46919;-63
2022/09/21 03:46:03;;;;;;;;;16.50;16.50;;;;;15.58;55.35;101950.63;2087157;28;47161;-64
2022/09/21 03:47:05;;;;;;;;;13.75;13.75;;;;;15.57;55.68;101946.22;2083786;28;45919;-65
2022/09/21 03:48:06;;;;;;;;;11.00;10.80;;;;;15.56;55.46;101943.56;2090775;27;47956;-63
2022/09/21 03:49:06;;;;;;;;;11.25;10.50;;;;;15.55;55.34;101940.00;2094690;28;45101;-62
2022/09/21 03:50:07;;;;;;;;;10.25;9.50;;;;;15.53;55.55;101941.84;2096005;28;47682;-63
2022/09/21 03:51:08;;;;;;;;;10.40;10.40;;;;;15.53;56.00;101936.50;2094630;28;48070;-61
2022/09/21 03:52:08;;;;;;;;;12.50;11.50;;;;;15.51;55.80;101940.13;2093170;28;47686;-60
2022/09/21 03:53:09;;;;;;;;;13.25;11.00;;;;;15.52;56.04;101942.78;2090820;28;47640;-61
2022/09/21 03:54:10;;;;;;;;;10.00;10.00;;;;;15.52;56.00;101941.88;2095159;28;47188;-61
2022/09/21 03:55:10;;;;;;;;;9.50;8.50;;;;;15.50;56.00;101939.25;2095194;28;46729;-63
2022/09/21 03:56:11;;;;;;;;;9.00;9.00;;;;;15.50;55.54;101944.59;2095918;28;45665;-62
2022/09/21 03:57:11;;;;;;;;;11.75;10.50;;;;;15.49;55.88;101942.81;2094170;28;45626;-64
2022/09/21 03:58:12;;;;;;;;;10.00;10.00;;;;;15.48;55.90;101945.53;2095178;28;45800;-62
2022/09/21 03:59:12;;;;;;;;;12.50;12.50;;;;;15.47;55.50;101946.44;2095823;28;45986;-64
2022/09/21 04:00:13;;;;;;;;;10.50;10.25;;;;;15.46;56.00;101945.56;2096026;28;47244;-62
2022/09/21 04:01:13;;;;;;;;;13.40;11.00;;;;;15.48;55.73;101945.53;2093314;28;47077;-60
2022/09/21 04:02:15;;;;;;;;;10.25;10.25;;;;;15.47;55.56;101941.97;2090973;28;46447;-62
2022/09/21 04:03:15;;;;;;;;;11.00;11.00;;;;;15.46;55.87;101942.88;2090731;28;47859;-61
2022/09/21 04:04:15;;;;;;;;;8.75;8.75;;;;;15.46;55.75;101942.88;2088219;28;47658;-60
2022/09/21 04:05:16;;;;;;;;;12.75;9.75;;;;;15.47;55.82;101947.31;2091307;28;46757;-62
2022/09/21 04:06:17;;;;;;;;;11.50;11.00;;;;;15.47;56.17;101941.09;2095165;28;47374;-61
2022/09/21 04:07:17;;;;;;;;;10.50;10.50;;;;;15.46;56.00;101939.34;2101076;27;48125;-61
2022/09/21 04:08:18;;;;;;;;;9.25;9.25;;;;;15.44;56.19;101947.41;2102957;27;47720;-60
2022/09/21 04:09:18;;;;;;;;;9.50;9.50;;;;;15.44;55.85;101943.84;2101417;28;47678;-61
2022/09/21 04:10:25;;;;;;;;;9.75;9.75;;;;;15.44;56.24;101939.38;2103360;27;47545;-62
2022/09/21 04:11:26;;;;;;;;;10.40;10.40;;;;;15.42;55.81;101941.22;2100758;27;47537;-61
2022/09/21 04:12:27;;;;;;;;;9.00;8.75;;;;;15.43;55.96;101940.28;2103359;28;46986;-61
2022/09/21 04:13:27;;;;;;;;;11.25;9.75;;;;;15.43;55.85;101945.63;2101430;27;47496;-61
2022/09/21 04:14:28;;;;;;;;;11.50;10.50;;;;;15.43;55.89;101936.75;2103329;28;48435;-62
2022/09/21 04:15:30;;;;;;;;;11.80;10.00;;;;;15.43;55.76;101936.75;2100454;27;47432;-61
2022/09/21 04:16:30;;;;;;;;;10.00;10.00;;;;;15.44;56.27;101941.16;2102967;28;47987;-61
2022/09/21 04:17:30;;;;;;;;;7.75;7.75;;;;;15.43;55.87;101937.63;2100712;27;46511;-60
2022/09/21 04:18:31;;;;;;;;;9.00;9.00;;;;;15.43;56.09;101940.28;2094992;28;47884;-62
2022/09/21 04:19:31;;;;;;;;;11.00;10.00;;;;;15.43;56.33;101940.28;2084284;28;47698;-62
2022/09/21 04:20:32;;;;;;;;;9.25;9.25;;;;;15.44;56.15;101936.69;2095213;28;47856;-59
2022/09/21 04:21:32;;;;;;;;;10.50;8.75;;;;;15.44;56.01;101939.38;2092645;28;47034;-61
2022/09/21 04:22:35;;;;;;;;;9.75;9.75;;;;;15.43;56.03;101934.94;2094810;28;47240;-60
2022/09/21 04:23:35;;;;;;;;;8.60;8.60;;;;;15.41;56.11;101933.22;2101562;27;48771;-61
2022/09/21 04:24:37;;;;;;;;;11.00;11.00;;;;;15.42;55.80;101940.34;2103481;27;47533;-61
2022/09/21 04:25:37;;;;;;;;;9.40;9.40;;;;;15.40;56.24;101939.50;2102385;27;47943;-61
2022/09/21 04:26:39;;;;;;;;;9.75;9.75;;;;;15.39;56.27;101935.06;2103044;27;48007;-61
2022/09/21 04:27:40;;;;;;;;;8.00;8.00;;;;;15.38;56.19;101936.84;2102215;27;47763;-61
2022/09/21 04:28:41;;;;;;;;;13.50;10.75;;;;;15.40;56.26;101942.16;2097792;28;47442;-61
2022/09/21 04:29:41;;;;;;;;;10.25;10.00;;;;;15.39;55.93;101943.09;2101843;27;47837;-61
2022/09/21 04:30:42;;;;;;;;;10.25;9.75;;;;;15.38;56.23;101935.97;2101950;27;47466;-61
2022/09/21 04:31:42;;;;;;;;;10.75;9.00;;;;;15.37;56.08;101934.19;2102083;27;47247;-60
2022/09/21 04:32:43;;;;;;;;;14.25;12.50;;;;;15.37;55.80;101936.84;2101931;27;47413;-61
2022/09/21 04:33:47;;;;;;;;;11.40;8.80;;;;;15.37;56.14;101943.09;2093190;28;48130;-61
2022/09/21 04:34:47;;;;;;;;;8.40;7.40;;;;;15.36;56.32;101935.09;2093977;28;47634;-60
2022/09/21 04:35:52;;;;;;;;;7.50;7.50;;;;;15.35;56.33;101936.00;2102179;27;47941;-61
2022/09/21 04:36:53;;;;;;;;;11.00;7.40;;;;;15.34;55.77;101935.13;2101272;27;46394;-61
2022/09/21 04:37:55;;;;;;;;;9.00;8.75;;;;;15.35;56.17;101936.00;2102942;28;47709;-60
2022/09/21 04:38:55;;;;;;;;;8.80;8.20;;;;;15.32;56.13;101935.19;2102543;27;46688;-61
2022/09/21 04:39:56;;;;;;;;;10.50;8.75;;;;;15.31;56.28;101929.84;2103844;28;44963;-63
2022/09/21 04:40:57;;;;;;;;;11.50;9.75;;;;;15.30;55.85;101934.34;2101768;27;46678;-63
2022/09/21 04:41:58;;;;;;;;;11.40;9.40;;;;;15.29;56.35;101935.25;2102599;27;45749;-63
2022/09/21 04:42:58;;;;;;;;;12.25;10.00;;;;;15.26;55.91;101935.31;2102330;28;44992;-63
2022/09/21 04:44:00;;;;;;;;;11.00;10.25;;;;;15.25;56.51;101938.91;2103266;27;46304;-63
2022/09/21 04:45:00;;;;;;;;;9.40;9.40;;;;;15.25;56.26;101938.03;2101706;27;45944;-63
2022/09/21 04:46:09;;;;;;;;;9.75;9.75;;;;;15.23;56.11;101932.69;2095965;28;46109;-62
2022/09/21 04:47:10;;;;;;;;;11.00;10.00;;;;;15.23;56.08;101940.72;2093481;28;46101;-63
2022/09/21 04:48:10;;;;;;;;;9.50;9.50;;;;;15.23;56.32;101935.38;2104422;28;47887;-63
2022/09/21 04:49:11;;;;;;;;;10.75;9.00;;;;;15.23;56.36;101945.19;2103103;28;47529;-61
2022/09/21 04:50:12;;;;;;;;;9.75;9.75;;;;;15.23;56.32;101938.03;2101676;28;47261;-63
2022/09/21 04:51:14;;;;;;;;;10.00;10.00;;;;;15.23;56.45;101940.72;2101684;27;47419;-62
2022/09/21 04:52:15;;;;;;;;;11.80;10.60;;;;;15.23;56.48;101937.16;2102960;27;47104;-64
2022/09/21 04:53:16;;;;;;;;;11.25;9.25;;;;;15.22;56.53;101946.09;2108420;27;47014;-63
2022/09/21 04:54:17;;;;;;;;;11.20;10.80;;;;;15.20;56.47;101935.44;2106112;27;47774;-63
2022/09/21 04:55:17;;;;;;;;;10.75;10.75;;;;;15.20;56.60;101951.47;2104316;27;47326;-62
2022/09/21 04:56:18;;;;;;;;;8.25;8.00;;;;;15.19;56.11;101941.69;2105301;27;45263;-63
2022/09/21 04:57:18;;;;;;;;;12.25;10.50;;;;;15.19;56.57;101944.38;2077454;28;46107;-61
2022/09/21 04:58:19;;;;;;;;;10.75;10.75;;;;;15.18;56.51;101950.63;2080862;28;47383;-62
2022/09/21 04:59:19;;;;;;;;;11.75;11.00;;;;;15.18;56.22;101947.09;2110432;27;47393;-60
2022/09/21 05:00:19;;;;;;;;;11.00;10.00;;;;;15.17;56.20;101945.31;2109048;27;45489;-64
2022/09/21 05:01:20;;;;;;;;;9.00;9.00;;;;;15.17;56.58;101945.31;2108184;27;45810;-62